• Join FlightAware (Why Join?)
  • Login
  • US Flag 
07:56AM EDT


 

Airport Tracker/Info


-or-


 

Live Flight TrackerFlight Track Log ✈ UAL3776 ✈ 23-Apr-2013 ✈ KIAD - KRDU

Flight Track Log - Related Links

Times and Time Zones

All times are in EDT time to prevent confusion due to time zone crossing. See the UAL3776 flight status page for this flight to view local times or setup timezone preferences in your user account.

Time Position Orientation Groundspeed Altitude Reporting Facility
EDT Latitude Longitude Course Direction KTS MPH feet Rate Location/Type
03:40PM 38.9333 -77.5000 201° Southwest 169 194 1,600  Level Potomac TRACON
03:41PM 38.9000 -77.5500 229° Southwest 229 264 4,000 2,100 Climbing Potomac TRACON
03:42PM 38.8500 -77.6167 226° Southwest 266 306 5,900 2,580 Climbing Potomac TRACON
03:43PM 38.6213 -77.6066 189° South  Level Estimated
03:43PM 38.8000 -77.6833 226° Southwest 281 323 9,300  Level Potomac TRACON
03:44PM 38.5126 -77.6552 185° South  Level Estimated
03:44PM 38.7639 -77.6869 184° South 302 348 9,900  Level Washington Center
03:45PM 38.4038 -77.7036 218° Southwest  Level Estimated
03:45PM 38.6747 -77.6578 166° South 340 391 12,000  Level Washington Center
03:46PM 38.2950 -77.7519 201° Southwest  Level Estimated
03:46PM 38.5833 -77.6289 166° South 369 425 14,600  Level Washington Center
03:47PM 38.4839 -77.5969 166° South 374 430 17,000 1,980 Climbing Washington Center
03:48PM 38.3778 -77.5833 174° South 374 430 18,600 1,740 Climbing Washington Center
03:49PM 38.2847 -77.6628 214° Southwest 364 419 20,500 1,680 Climbing Washington Center
03:50PM 38.1894 -77.7475 215° Southwest 386 444 22,000 720 Climbing Washington Center
03:51PM 38.0897 -77.8317 214° Southwest 423 487 22,000  Level Washington Center
03:52PM 37.9858 -77.9181 213° Southwest 437 503 22,000  Level Washington Center
03:53PM 37.8883 -78.0019 214° Southwest 443 510 22,000  Level Washington Center
03:54PM 37.7800 -78.0958 214° Southwest 438 504 22,000  Level Washington Center
03:55PM 37.6867 -78.1767 214° Southwest 432 497 22,000  Level Washington Center
03:56PM 37.5844 -78.2650 214° Southwest 434 499 22,000  Level Washington Center
03:57PM 37.4803 -78.3528 214° Southwest 445 512 22,000  Level Washington Center
03:58PM 37.3847 -78.4303 213° Southwest 454 522 22,000  Level Washington Center
03:59PM 37.2783 -78.5153 212° Southwest 459 528 22,000  Level Washington Center
04:00PM 37.1697 -78.6075 214° Southwest 465 535 22,000 -780 Level Washington Center
04:01PM 37.0653 -78.6944 214° Southwest 465 535 20,500 -1,740 Descending Washington Center
04:02PM 36.9650 -78.7761 213° Southwest 458 527 18,600 -1,800 Descending Washington Center
04:03PM 36.8628 -78.8578 213° Southwest 427 491 17,000 -840 Descending Washington Center
04:04PM 36.7731 -78.9317 213° Southwest 408 470 17,000  Level Washington Center
04:05PM 36.6856 -79.0031 213° Southwest 396 456 17,000 -1,080 Level Washington Center
04:06PM 36.5856 -78.9908 174° South 351 404 14,900 -2,220 Descending Washington Center
04:06PM 36.5339 -78.9758 167° South 351 404 13,500 -2,400 Descending Washington Center
04:07PM 36.5028 -78.9717 174° South 352 405 12,500 -2,760 Descending Washington Center
04:07PM 36.4344 -78.9481 164° South 340 391 10,700 -2,400 Descending Washington Center
04:08PM 36.4117 -78.9419 168° South 352 405 10,100 -720 Descending Washington Center
04:08PM 36.3436 -78.9211 166° South 330 380 10,000 -120 Descending Washington Center
04:09PM 36.3206 -78.9150 168° South 345 397 10,000  Level Washington Center
04:09PM 36.2503 -78.8939 166° South 325 374 10,000 -120 Level Washington Center
04:10PM 36.2256 -78.8878 169° South 332 382 9,900 -1,140 Descending Washington Center
04:10PM 36.1697 -78.8700 166° South 299 344 8,900 -1,320 Descending Washington Center
04:11PM 36.1550 -78.8667 170° South 304 350 8,600 -900 Descending Washington Center
04:11PM 36.0847 -78.8483 168° South 272 313 8,000 -600 Descending Washington Center
04:12PM 36.0786 -78.8456 160° South 294 338 8,000  Level Washington Center
04:12PM 36.0078 -78.8400 176° South 286 329 8,000 -540 Level Washington Center
04:13PM 35.9400 -78.8783 205° Southwest 272 313 7,100 -1,320 Descending Washington Center
04:14PM 35.8861 -78.9350 220° Southwest 252 290 5,400 -1,620 Descending Washington Center
04:15PM 35.8289 -78.9633 202° Southwest 247 284 3,900 -1,320 Descending Washington Center
04:16PM 35.8058 -78.9011 115° Southeast 184 212 2,800 -1,140 Descending Washington Center